Terminal Aerodrome Forecast
Issued by NWS Detroit/Pontiac, MI

Home | Current Version | Previous Version | Text Only | Print | Product List | Glossary On
Versions: 1 2 3 4 5 6 7 8 9 10 11 12 13 14 15 16 17
331
FTUS43 KDTX 270019 RRA
TAFFNT
TAF
KFNT 270019Z 2700/2724 23006KT P6SM FEW070 SCT250
     FM270300 24004KT P6SM SKC
     FM271600 26008KT P6SM SCT060
     FM272100 VRB04KT P6SM SCT045 BKN150 PROB30 2721/2723 3SM TSRA
      BKN040CB=

USA.gov is the U.S. government's official web portal to all federal, state and local government web resources and services.